Etusivu
METAR-TAF:

METAR-TAF

Lentoasemat :

Comanche County-City Airport

Comanche, Texas, Yhdysvallat

Leveyspiiri: 31-55N, Pituuspiiri: 098-36-01W, korkeus merenpinnasta: 423 m

Tämänhetkinen sää

Tämä raportti tehtiin 9 minuuttia sitten, kello 20.36 UTC
Tuuli 6 kn idästä/kaakosta
Lämpötila 13°C
Kosteus 94%
Ilmanpaine 1014 hPa
Näkyvyys: 16.1 km
Pilvistä 1500 ft:n korkeudessa

METAR: KMKN 232036Z AUTO 11006KT 10SM OVC015 13/12 A2995 RMK AO2

Aika: 14:45 (20:45 UTC)


TAF: puuttuu

Säähavainnot ja -ennusteet yli 4000 lentoasemalta (METAR- ja TAF-raportit).

Käytössä olevat sääasemat on merkitty karttaan keltaisilla ja punaisilla pisteillä.

Aseta hiiri pisteen päälle nähdäksesi sääaseman nimen.

Klikkaa sitten nähdäksesi säähavainnot ja -ennusteet.

Kartan vaihtaminen: klikkaa mustalla rastilla varustettuja vihreitä pisteitä, niin voit zoomata sisään; viivalla varustettua vihreää pistettä, niin voit zoomata ulos tai vihreitä nuolia, niin pääset viereisille kartoille.


METAR-TAF: